Time;durP1;ratioP1;P1;durP2;ratioP2;P2;SDS_P1;SDS_P2;PMS_P1;PMS_P2;Temp;Humidity;BMP_temperature;BMP_pressure;BME280_temperature;BME280_humidity;BME280_pressure;Samples;Min_cycle;Max_cycle;Signal;HPM_P1;HPM_P2
2023/12/29 00:00:39;;;;;;;2.23;1.67;;;8.10;99.90;;;;;;5014711;28;20886;-56
2023/12/29 00:03:06;;;;;;;2.07;1.60;;;8.10;99.90;;;;;;5014273;28;20519;-56
2023/12/29 00:05:32;;;;;;;1.83;1.30;;;8.10;99.90;;;;;;5014611;28;20447;-55
2023/12/29 00:08:00;;;;;;;4.43;1.97;;;8.10;99.90;;;;;;5014480;28;20501;-56
2023/12/29 00:10:27;;;;;;;6.70;1.80;;;8.20;99.90;;;;;;5014955;28;20457;-56
2023/12/29 00:12:54;;;;;;;3.00;1.60;;;8.20;99.90;;;;;;5014848;28;20541;-56
2023/12/29 00:15:20;;;;;;;1.50;1.40;;;8.20;99.90;;;;;;5014056;28;20459;-55
2023/12/29 00:17:47;;;;;;;5.17;2.03;;;8.20;99.90;;;;;;5014509;28;20501;-57
2023/12/29 00:20:13;;;;;;;2.27;2.00;;;8.20;99.90;;;;;;5014529;28;20525;-55
2023/12/29 00:22:40;;;;;;;2.60;1.57;;;8.20;99.90;;;;;;5012887;28;20525;-55
2023/12/29 00:25:08;;;;;;;2.23;1.57;;;8.10;99.90;;;;;;5014321;28;20448;-55
2023/12/29 00:27:36;;;;;;;4.03;1.60;;;8.10;99.90;;;;;;5014311;28;20462;-55
2023/12/29 00:30:03;;;;;;;4.90;1.97;;;8.20;99.90;;;;;;5014402;28;20505;-55
2023/12/29 00:32:30;;;;;;;6.60;1.60;;;8.30;99.90;;;;;;5013892;28;20491;-57
2023/12/29 00:34:56;;;;;;;1.87;1.50;;;8.30;99.90;;;;;;5014337;28;20447;-57
2023/12/29 00:37:23;;;;;;;4.83;2.37;;;8.30;99.90;;;;;;5014246;28;20448;-56
2023/12/29 00:39:50;;;;;;;1.80;1.47;;;8.30;99.90;;;;;;5014424;28;20501;-55
2023/12/29 00:42:18;;;;;;;1.87;1.50;;;8.40;99.90;;;;;;5014238;28;20475;-56
2023/12/29 00:44:45;;;;;;;4.63;1.60;;;8.40;99.90;;;;;;5013631;28;20444;-55
2023/12/29 00:47:11;;;;;;;2.93;1.43;;;8.40;99.90;;;;;;5012800;28;20444;-55
2023/12/29 00:49:40;;;;;;;3.13;1.33;;;8.40;93.70;;;;;;5013893;28;21509;-55
2023/12/29 00:52:07;;;;;;;2.43;1.40;;;8.40;88.50;;;;;;5014021;28;20497;-56
2023/12/29 00:54:33;;;;;;;2.40;1.67;;;8.40;87.70;;;;;;5013666;28;20448;-55
2023/12/29 00:57:00;;;;;;;1.60;1.50;;;8.40;91.20;;;;;;5013921;28;20873;-56
2023/12/29 00:59:28;;;;;;;1.53;1.37;;;8.40;98.70;;;;;;5013525;28;20889;-55
2023/12/29 01:01:54;;;;;;;4.10;1.20;;;8.40;99.10;;;;;;5013506;28;20628;-56
2023/12/29 01:04:21;;;;;;;2.20;1.33;;;8.40;92.50;;;;;;5013633;28;20443;-56
2023/12/29 01:06:48;;;;;;;5.00;1.33;;;8.40;83.90;;;;;;5013596;28;20451;-57
2023/12/29 01:09:14;;;;;;;5.67;1.40;;;8.40;75.20;;;;;;5013821;28;20474;-56
2023/12/29 01:11:41;;;;;;;3.17;1.53;;;8.40;20.20;;;;;;5013705;28;20970;-56
2023/12/29 01:14:07;;;;;;;1.83;1.40;;;8.40;77.60;;;;;;5012823;28;20483;-56
2023/12/29 01:16:35;;;;;;;3.67;1.83;;;8.40;84.40;;;;;;5013398;28;20506;-56
2023/12/29 01:19:02;;;;;;;2.50;1.30;;;8.40;21.20;;;;;;5013739;28;20494;-56
2023/12/29 01:21:33;;;;;;;1.63;1.53;;;8.50;23.60;;;;;;5013276;28;20518;-56
2023/12/29 01:24:00;;;;;;;2.10;1.50;;;8.50;24.00;;;;;;5013533;28;20531;-56
2023/12/29 01:26:27;;;;;;;1.60;1.50;;;8.40;24.30;;;;;;5013109;28;20948;-55
2023/12/29 01:28:54;;;;;;;5.33;1.80;;;8.50;28.10;;;;;;5012721;28;20456;-56
2023/12/29 01:31:20;;;;;;;1.50;1.40;;;8.40;26.50;;;;;;5013434;28;20460;-56
2023/12/29 01:33:48;;;;;;;2.47;1.60;;;8.50;28.60;;;;;;5012860;28;20537;-55
2023/12/29 01:36:18;;;;;;;2.20;1.70;;;8.50;28.90;;;;;;5012963;28;20824;-56
2023/12/29 01:38:45;;;;;;;1.10;1.00;;;8.50;32.80;;;;;;5013186;28;20444;-57
2023/12/29 01:41:11;;;;;;;2.20;1.90;;;8.60;33.80;;;;;;5012896;28;20969;-56
2023/12/29 01:44:18;;;;;;;9.10;2.17;;;8.60;38.50;;;;;;5012957;28;20474;-56
2023/12/29 01:46:46;;;;;;;1.83;1.20;;;8.60;36.60;;;;;;5011588;28;20538;-55
2023/12/29 01:49:16;;;;;;;1.50;1.20;;;8.60;36.80;;;;;;5013004;28;20447;-56
2023/12/29 01:51:43;;;;;;;1.97;1.80;;;8.60;37.00;;;;;;5012836;28;20463;-55
2023/12/29 01:54:12;;;;;;;4.17;1.50;;;8.50;37.30;;;;;;5012770;28;20712;-55
2023/12/29 01:56:39;;;;;;;4.90;1.47;;;8.60;38.90;;;;;;5012688;28;20950;-56
2023/12/29 01:59:05;;;;;;;1.70;1.13;;;8.60;38.50;;;;;;5012270;28;20440;-56
2023/12/29 02:01:32;;;;;;;1.40;1.30;;;8.60;41.40;;;;;;5012684;28;20479;-56
2023/12/29 02:03:59;;;;;;;2.53;1.80;;;8.60;41.40;;;;;;5012422;28;20440;-56
2023/12/29 02:06:28;;;;;;;2.60;1.77;;;8.60;41.30;;;;;;5012766;28;20498;-56
2023/12/29 02:08:56;;;;;;;2.60;2.40;;;8.60;39.90;;;;;;5012771;28;20447;-56
2023/12/29 02:11:22;;;;;;;1.93;1.60;;;8.50;37.10;;;;;;5012699;28;20498;-56
2023/12/29 02:13:49;;;;;;;1.90;1.60;;;8.50;36.40;;;;;;5012056;28;21013;-56
2023/12/29 02:16:24;;;;;;;2.77;1.63;;;8.50;33.60;;;;;;5011981;28;20793;-56
2023/12/29 02:18:52;;;;;;;2.97;1.90;;;8.40;31.40;;;;;;5012309;28;20501;-56
2023/12/29 02:21:24;;;;;;;1.93;1.20;;;8.40;34.20;;;;;;5007563;28;20468;-56
2023/12/29 02:23:52;;;;;;;4.13;1.93;;;8.40;32.90;;;;;;5007953;28;20510;-57
2023/12/29 02:26:23;;;;;;;2.90;1.43;;;8.40;34.80;;;;;;5012080;28;20448;-56
2023/12/29 02:29:03;;;;;;;4.83;1.93;;;8.40;36.00;;;;;;5011984;28;20448;-56
2023/12/29 02:31:31;;;;;;;3.60;1.60;;;8.40;32.80;;;;;;5011970;28;20984;-56
2023/12/29 02:33:59;;;;;;;1.67;1.53;;;8.40;32.60;;;;;;5012049;28;20851;-56
2023/12/29 02:36:26;;;;;;;2.90;1.50;;;8.50;35.60;;;;;;5012092;28;20452;-57
2023/12/29 02:38:53;;;;;;;2.73;1.47;;;8.50;37.20;;;;;;5012186;28;20451;-56
2023/12/29 02:41:21;;;;;;;3.00;1.80;;;8.50;39.90;;;;;;5012107;28;20525;-57
2023/12/29 02:43:47;;;;;;;1.73;1.30;;;8.60;40.50;;;;;;5011343;28;20440;-56
2023/12/29 02:46:14;;;;;;;2.70;1.63;;;8.50;37.80;;;;;;5012130;28;20502;-56
2023/12/29 02:48:40;;;;;;;5.77;1.70;;;8.50;38.40;;;;;;5011910;28;20502;-57
2023/12/29 02:51:08;;;;;;;1.37;1.27;;;8.60;39.50;;;;;;5010180;28;20498;-57
2023/12/29 02:53:34;;;;;;;2.40;1.73;;;8.60;41.30;;;;;;5011481;28;20933;-57
2023/12/29 02:56:01;;;;;;;1.80;1.67;;;8.60;39.00;;;;;;5011125;28;20447;-56
2023/12/29 02:58:29;;;;;;;2.50;1.40;;;8.60;41.20;;;;;;5011906;28;20843;-56
2023/12/29 03:00:56;;;;;;;5.27;1.70;;;8.60;40.20;;;;;;5011736;28;20491;-57
2023/12/29 03:03:22;;;;;;;1.70;1.60;;;8.50;39.80;;;;;;5011841;28;20440;-57
2023/12/29 03:05:49;;;;;;;1.67;1.57;;;8.50;38.40;;;;;;5011345;28;20448;-55
2023/12/29 03:08:15;;;;;;;4.03;1.80;;;8.50;37.10;;;;;;5011620;28;20443;-55
2023/12/29 03:10:42;;;;;;;2.90;1.53;;;8.50;40.90;;;;;;5015069;28;20463;-55
2023/12/29 03:13:08;;;;;;;2.63;1.47;;;8.60;41.40;;;;;;5015359;28;20541;-56
2023/12/29 03:15:36;;;;;;;2.00;1.67;;;8.50;38.40;;;;;;5014330;28;20447;-54
2023/12/29 03:18:03;;;;;;;2.40;1.80;;;8.50;40.20;;;;;;5015622;28;20469;-56
2023/12/29 03:20:30;;;;;;;2.30;1.77;;;8.60;41.30;;;;;;5015458;28;20449;-57
2023/12/29 03:22:57;;;;;;;1.87;1.53;;;8.60;42.10;;;;;;5008865;28;20872;-56
2023/12/29 03:25:23;;;;;;;1.77;1.30;;;8.70;44.90;;;;;;5015849;28;20478;-56
2023/12/29 03:27:50;;;;;;;2.17;1.70;;;8.60;44.30;;;;;;5015471;28;20478;-55
2023/12/29 03:30:17;;;;;;;2.00;1.80;;;8.60;41.40;;;;;;5015125;28;21003;-56
2023/12/29 03:32:44;;;;;;;1.67;1.43;;;8.60;43.60;;;;;;5015503;28;20501;-56
2023/12/29 03:35:11;;;;;;;4.53;1.40;;;8.60;45.80;;;;;;5015103;28;20443;-56
2023/12/29 03:37:39;;;;;;;2.37;2.00;;;8.70;45.70;;;;;;5015187;28;20483;-56
2023/12/29 03:40:07;;;;;;;2.00;1.23;;;8.70;44.60;;;;;;5015409;28;20494;-56
2023/12/29 03:42:33;;;;;;;4.00;1.60;;;8.60;45.00;;;;;;5015180;28;20874;-56
2023/12/29 03:45:00;;;;;;;1.10;1.10;;;8.70;45.80;;;;;;5015034;28;20451;-55
2023/12/29 03:47:27;;;;;;;2.80;1.90;;;8.70;49.60;;;;;;5015130;28;20443;-56
2023/12/29 03:49:55;;;;;;;2.77;1.80;;;8.80;52.10;;;;;;5014979;28;20510;-56
2023/12/29 03:52:22;;;;;;;1.73;1.50;;;8.80;53.50;;;;;;5015315;28;20479;-56
2023/12/29 03:54:48;;;;;;;4.00;1.30;;;8.80;53.00;;;;;;5014814;28;20545;-55
2023/12/29 03:57:15;;;;;;;4.03;1.60;;;8.80;54.40;;;;;;5015085;28;20467;-56
2023/12/29 03:59:42;;;;;;;2.10;1.90;;;8.80;54.80;;;;;;5014503;28;20870;-56
2023/12/29 04:02:08;;;;;;;1.67;1.57;;;8.90;56.50;;;;;;5014625;28;20475;-56
2023/12/29 04:04:37;;;;;;;1.53;1.43;;;8.90;57.90;;;;;;5014726;28;20784;-56
2023/12/29 04:07:05;;;;;;;1.90;1.33;;;8.90;48.70;;;;;;5014970;28;20455;-56
2023/12/29 04:09:32;;;;;;;1.40;1.30;;;8.80;28.10;;;;;;5014429;28;21022;-56
2023/12/29 04:11:58;;;;;;;1.60;1.37;;;8.60;90.50;;;;;;5014881;28;20517;-55
2023/12/29 04:14:25;;;;;;;1.90;1.43;;;8.50;99.90;;;;;;5014208;28;21005;-55
2023/12/29 04:16:52;;;;;;;3.70;1.10;;;8.40;99.90;;;;;;5014538;28;20452;-55
2023/12/29 04:19:18;;;;;;;2.23;1.50;;;8.50;99.90;;;;;;5014226;28;20443;-56
2023/12/29 04:21:45;;;;;;;3.37;1.60;;;8.40;99.90;;;;;;5010040;28;20517;-55
2023/12/29 04:24:13;;;;;;;2.40;1.30;;;8.30;99.90;;;;;;5014903;28;20444;-55
2023/12/29 04:26:39;;;;;;;2.63;1.67;;;8.30;85.40;;;;;;5014170;28;20949;-55
2023/12/29 04:29:06;;;;;;;2.50;1.53;;;8.30;99.90;;;;;;5014287;28;20518;-56
2023/12/29 04:31:33;;;;;;;1.63;1.53;;;8.30;84.20;;;;;;5013915;28;20471;-56
2023/12/29 04:33:59;;;;;;;2.20;1.20;;;8.30;90.20;;;;;;5014254;28;20486;-56
2023/12/29 04:36:26;;;;;;;1.87;1.77;;;8.30;73.60;;;;;;5014359;28;20451;-56
2023/12/29 04:38:52;;;;;;;1.87;1.23;;;8.30;20.00;;;;;;5014325;28;20448;-55
2023/12/29 04:41:20;;;;;;;2.93;1.57;;;8.30;22.40;;;;;;5014470;28;20518;-57
2023/12/29 04:43:47;;;;;;;1.60;1.50;;;8.40;25.70;;;;;;5014101;28;20436;-55
2023/12/29 04:46:13;;;;;;;2.50;1.40;;;8.30;23.30;;;;;;5013978;28;20669;-57
2023/12/29 04:48:40;;;;;;;6.83;1.80;;;8.40;25.80;;;;;;5013677;28;20984;-55
2023/12/29 04:51:06;;;;;;;4.63;1.70;;;8.30;26.30;;;;;;5014183;28;20879;-55
2023/12/29 04:53:33;;;;;;;2.03;1.40;;;8.40;29.40;;;;;;5013945;28;20903;-55
2023/12/29 04:55:59;;;;;;;2.30;1.20;;;8.40;29.60;;;;;;5014036;28;20525;-56
2023/12/29 04:58:27;;;;;;;3.13;1.20;;;8.40;28.30;;;;;;5013176;28;20518;-57
2023/12/29 05:00:54;;;;;;;1.23;1.10;;;8.30;24.90;;;;;;5013648;28;20480;-55
2023/12/29 05:03:20;;;;;;;2.57;1.20;;;8.30;25.50;;;;;;5014554;28;20444;-57
2023/12/29 05:05:47;;;;;;;1.93;1.30;;;8.40;28.50;;;;;;5013747;28;20451;-57
2023/12/29 05:08:14;;;;;;;4.70;1.30;;;8.50;30.10;;;;;;5013811;28;20451;-57
2023/12/29 05:10:40;;;;;;;2.23;1.33;;;8.50;32.10;;;;;;5013301;28;20464;-56
2023/12/29 05:13:07;;;;;;;1.20;1.10;;;8.60;34.30;;;;;;5013671;28;20825;-56
2023/12/29 05:15:35;;;;;;;1.63;1.00;;;8.60;34.10;;;;;;5013202;28;20837;-56
2023/12/29 05:18:01;;;;;;;2.53;1.30;;;8.70;34.80;;;;;;5013601;28;20506;-56
2023/12/29 05:20:28;;;;;;;2.07;1.10;;;8.70;37.80;;;;;;5013397;28;20483;-57
2023/12/29 05:22:54;;;;;;;3.53;1.33;;;8.80;39.30;;;;;;5007187;28;20930;-57
2023/12/29 05:25:23;;;;;;;1.47;1.00;;;8.80;41.40;;;;;;5013186;28;20440;-56
2023/12/29 05:27:49;;;;;;;6.00;1.20;;;8.80;40.50;;;;;;5013118;28;20454;-56
2023/12/29 05:30:16;;;;;;;1.13;1.00;;;8.80;41.30;;;;;;5013263;28;20447;-56
2023/12/29 05:32:44;;;;;;;3.23;1.30;;;8.80;40.90;;;;;;5012897;28;20452;-57
2023/12/29 05:35:11;;;;;;;1.73;1.27;;;8.80;36.70;;;;;;5012495;28;20479;-56
2023/12/29 05:37:37;;;;;;;1.03;0.93;;;8.80;36.40;;;;;;5013136;28;20443;-56
2023/12/29 05:40:05;;;;;;;1.80;0.90;;;8.80;38.90;;;;;;5012966;28;20455;-57
2023/12/29 05:42:31;;;;;;;5.90;1.23;;;8.80;38.60;;;;;;5012972;28;20529;-57
2023/12/29 05:44:58;;;;;;;3.50;1.73;;;8.80;36.90;;;;;;5012863;28;20443;-57
2023/12/29 05:47:25;;;;;;;3.00;1.23;;;8.90;40.50;;;;;;5013423;28;20444;-57
2023/12/29 05:49:53;;;;;;;1.10;1.00;;;8.90;38.10;;;;;;5013072;28;20444;-56
2023/12/29 05:52:19;;;;;;;2.03;1.20;;;8.90;37.30;;;;;;5012959;28;20529;-59
2023/12/29 05:54:46;;;;;;;1.20;1.10;;;8.90;37.60;;;;;;5012439;28;20479;-57
2023/12/29 05:57:12;;;;;;;1.23;1.13;;;8.90;36.40;;;;;;5012493;28;20502;-58
2023/12/29 05:59:40;;;;;;;2.50;1.20;;;8.90;37.10;;;;;;5012756;28;20440;-58
2023/12/29 06:02:14;;;;;;;3.07;0.90;;;9.00;36.40;;;;;;5013610;28;20529;-57
2023/12/29 06:04:41;;;;;;;2.50;1.10;;;9.00;37.80;;;;;;5012896;28;20436;-59
2023/12/29 06:07:09;;;;;;;3.70;1.20;;;9.00;37.20;;;;;;5012084;28;20447;-59
2023/12/29 06:09:35;;;;;;;2.53;1.30;;;9.00;39.50;;;;;;5012956;28;20458;-61
2023/12/29 06:12:02;;;;;;;1.53;1.20;;;9.10;39.10;;;;;;5013074;28;20467;-61
2023/12/29 06:14:28;;;;;;;1.03;0.93;;;9.00;36.70;;;;;;5012056;28;20491;-60
2023/12/29 06:16:55;;;;;;;3.17;1.60;;;9.00;38.60;;;;;;5012550;28;20506;-59
2023/12/29 06:19:21;;;;;;;1.53;0.93;;;9.10;38.80;;;;;;5012644;28;20828;-60
2023/12/29 06:21:48;;;;;;;2.03;0.90;;;9.00;37.10;;;;;;5012322;28;20827;-59
2023/12/29 06:24:16;;;;;;;0.90;0.90;;;9.10;38.90;;;;;;5011981;28;20490;-59
2023/12/29 06:26:44;;;;;;;6.10;1.03;;;9.10;41.40;;;;;;5012361;28;20444;-60
2023/12/29 06:29:10;;;;;;;3.23;1.00;;;9.10;38.90;;;;;;5012459;28;20444;-60
2023/12/29 06:31:41;;;;;;;1.43;1.10;;;9.10;38.30;;;;;;5011454;28;20942;-59
2023/12/29 06:34:08;;;;;;;1.20;0.97;;;9.10;41.30;;;;;;5012250;28;20915;-59
2023/12/29 06:36:34;;;;;;;4.30;1.57;;;9.10;40.40;;;;;;5011328;28;20494;-61
2023/12/29 06:39:01;;;;;;;1.20;1.10;;;9.10;40.50;;;;;;5012021;28;20447;-61
2023/12/29 06:41:29;;;;;;;2.07;1.23;;;9.00;40.00;;;;;;5012373;28;20538;-60
2023/12/29 06:43:55;;;;;;;1.63;1.20;;;9.10;41.10;;;;;;5011450;28;20436;-61
2023/12/29 06:46:22;;;;;;;1.10;0.93;;;9.10;41.50;;;;;;5011516;28;20817;-60
2023/12/29 06:48:48;;;;;;;2.00;0.90;;;9.10;44.60;;;;;;5005861;28;20444;-60
2023/12/29 06:51:18;;;;;;;1.33;1.00;;;9.10;45.10;;;;;;5011775;28;20468;-61
2023/12/29 06:53:45;;;;;;;1.07;0.90;;;9.10;46.20;;;;;;5011479;28;20444;-61
2023/12/29 06:56:14;;;;;;;1.20;0.90;;;9.10;44.00;;;;;;5011842;28;20452;-60
2023/12/29 06:58:42;;;;;;;0.90;0.90;;;9.10;45.00;;;;;;5011990;28;20454;-60
2023/12/29 07:01:08;;;;;;;1.83;1.03;;;9.10;45.00;;;;;;5011314;28;20478;-61
2023/12/29 07:03:35;;;;;;;3.17;1.20;;;9.10;42.50;;;;;;5011769;28;20456;-61
2023/12/29 07:06:02;;;;;;;1.53;1.43;;;9.10;45.90;;;;;;5011874;28;20451;-61
2023/12/29 07:08:28;;;;;;;4.63;1.00;;;9.10;46.90;;;;;;5011810;28;20443;-61
2023/12/29 07:10:55;;;;;;;1.53;1.10;;;9.10;44.40;;;;;;5011515;28;20945;-60
2023/12/29 07:13:22;;;;;;;3.60;1.30;;;9.10;46.40;;;;;;5011916;28;20506;-61
2023/12/29 07:15:50;;;;;;;3.67;1.20;;;9.10;45.30;;;;;;5011210;28;20518;-62
2023/12/29 07:18:16;;;;;;;3.43;1.70;;;9.10;46.00;;;;;;5011490;28;20447;-62
2023/12/29 07:20:43;;;;;;;1.40;1.00;;;9.20;48.00;;;;;;5011241;28;20527;-61
2023/12/29 07:23:10;;;;;;;1.17;1.10;;;9.20;49.30;;;;;;5011925;28;20451;-61
2023/12/29 07:25:36;;;;;;;2.23;1.10;;;9.30;52.80;;;;;;5011674;28;20439;-60
2023/12/29 07:28:03;;;;;;;1.13;0.80;;;9.30;52.30;;;;;;5011609;28;20447;-61
2023/12/29 07:30:35;;;;;;;1.40;1.30;;;9.30;51.90;;;;;;5011056;28;20498;-60
2023/12/29 07:33:05;;;;;;;1.17;1.10;;;9.40;54.10;;;;;;4999911;28;20455;-62
2023/12/29 07:35:38;;;;;;;3.03;1.30;;;9.40;56.30;;;;;;5011244;28;20542;-60
2023/12/29 07:38:19;;;;;;;1.20;1.10;;;9.40;54.90;;;;;;5011249;28;20506;-61
2023/12/29 07:40:47;;;;;;;1.57;1.30;;;9.40;55.80;;;;;;4999700;28;20574;-55
2023/12/29 07:43:14;;;;;;;2.00;1.30;;;9.40;56.20;;;;;;5011515;28;20451;-55
2023/12/29 07:45:43;;;;;;;3.40;1.27;;;9.50;57.10;;;;;;5011217;28;20443;-55
2023/12/29 07:48:10;;;;;;;2.37;1.00;;;9.40;58.80;;;;;;5011353;28;20447;-54
2023/12/29 07:50:37;;;;;;;2.87;1.20;;;9.50;57.70;;;;;;5012597;28;20468;-53
2023/12/29 07:53:05;;;;;;;1.20;1.10;;;9.40;54.80;;;;;;5000389;28;20439;-53
2023/12/29 07:55:32;;;;;;;1.27;1.17;;;9.40;56.50;;;;;;5012290;28;20510;-54
2023/12/29 07:57:59;;;;;;;1.03;0.93;;;9.50;56.60;;;;;;5014878;28;20447;-53
2023/12/29 08:00:26;;;;;;;2.60;1.20;;;9.50;56.80;;;;;;5015018;28;20455;-54
2023/12/29 08:02:53;;;;;;;4.20;1.27;;;9.50;55.80;;;;;;5015424;28;20487;-53
2023/12/29 08:05:21;;;;;;;2.80;1.30;;;9.50;55.40;;;;;;5015064;28;20443;-52
2023/12/29 08:07:47;;;;;;;1.13;1.10;;;9.50;58.00;;;;;;5014787;28;21003;-53
2023/12/29 08:10:14;;;;;;;1.43;1.00;;;9.50;57.20;;;;;;5014233;28;20873;-53
2023/12/29 08:12:40;;;;;;;1.53;1.37;;;9.50;55.60;;;;;;5014539;28;20521;-54
2023/12/29 08:15:07;;;;;;;1.93;1.07;;;9.50;56.10;;;;;;5014700;28;20483;-53
2023/12/29 08:17:34;;;;;;;2.40;1.03;;;9.50;53.70;;;;;;5014825;28;20443;-53
2023/12/29 08:20:01;;;;;;;1.20;1.10;;;9.50;51.80;;;;;;5014619;28;20444;-54
2023/12/29 08:22:32;;;;;;;1.57;1.30;;;9.50;51.10;;;;;;5014255;28;20895;-53
2023/12/29 08:24:58;;;;;;;1.50;1.40;;;9.50;51.80;;;;;;5015081;28;20444;-53
2023/12/29 08:27:26;;;;;;;2.50;1.33;;;9.50;49.60;;;;;;5014648;28;20443;-54
2023/12/29 08:29:53;;;;;;;4.23;1.30;;;9.50;51.90;;;;;;5013955;28;20925;-53
2023/12/29 08:32:20;;;;;;;2.40;1.60;;;9.60;54.40;;;;;;5014459;28;21218;-53
2023/12/29 08:34:47;;;;;;;1.40;1.40;;;9.70;53.00;;;;;;5013237;28;20828;-53
2023/12/29 08:37:15;;;;;;;2.37;1.43;;;9.70;54.50;;;;;;5013894;28;20452;-53
2023/12/29 08:39:43;;;;;;;1.50;1.37;;;9.70;53.30;;;;;;5014662;28;20451;-52
2023/12/29 08:42:10;;;;;;;1.93;1.77;;;9.70;56.00;;;;;;5013928;28;20978;-54
2023/12/29 08:44:36;;;;;;;2.40;1.20;;;9.80;58.40;;;;;;5014392;28;20848;-54
2023/12/29 08:47:03;;;;;;;3.93;1.50;;;9.90;62.40;;;;;;5013410;28;20444;-54
2023/12/29 08:49:30;;;;;;;3.03;1.27;;;10.00;63.70;;;;;;5014131;28;20444;-54
2023/12/29 08:51:56;;;;;;;2.77;1.10;;;10.20;68.60;;;;;;5013650;28;20460;-52
2023/12/29 08:54:23;;;;;;;3.37;1.10;;;10.20;72.30;;;;;;5013966;28;20840;-52
2023/12/29 08:56:51;;;;;;;4.17;1.20;;;10.20;69.70;;;;;;5013720;28;20835;-54
2023/12/29 08:59:17;;;;;;;3.50;1.23;;;10.10;69.90;;;;;;5013358;28;20510;-54
2023/12/29 09:01:44;;;;;;;1.20;1.00;;;10.20;70.70;;;;;;5013256;28;20471;-52
2023/12/29 09:04:10;;;;;;;4.47;1.47;;;10.20;70.10;;;;;;5013670;28;20439;-51
2023/12/29 09:06:37;;;;;;;5.70;1.70;;;10.30;68.90;;;;;;5012250;28;20436;-53
2023/12/29 09:09:04;;;;;;;3.40;1.50;;;10.30;70.90;;;;;;5013321;28;20505;-52
2023/12/29 09:11:30;;;;;;;3.87;1.20;;;10.50;80.20;;;;;;5013391;28;20464;-52
2023/12/29 09:13:58;;;;;;;3.03;1.20;;;10.80;89.50;;;;;;5012667;28;20792;-53
2023/12/29 09:16:25;;;;;;;3.40;1.40;;;10.70;86.80;;;;;;5005719;28;20562;-52
2023/12/29 09:18:51;;;;;;;3.07;1.20;;;10.50;79.30;;;;;;5013191;28;20519;-52
2023/12/29 09:21:18;;;;;;;2.90;1.27;;;10.30;73.20;;;;;;5011019;28;20514;-52
2023/12/29 09:23:44;;;;;;;1.67;1.10;;;10.20;66.10;;;;;;5013261;28;20819;-54
2023/12/29 09:26:11;;;;;;;3.17;1.67;;;10.10;63.10;;;;;;5013363;28;20498;-52
2023/12/29 09:28:38;;;;;;;5.50;1.47;;;10.20;61.20;;;;;;5012944;28;20444;-53
2023/12/29 09:31:06;;;;;;;2.70;1.60;;;10.20;59.70;;;;;;5013340;28;20472;-53
2023/12/29 09:33:32;;;;;;;1.93;1.53;;;10.30;60.30;;;;;;5012728;28;21020;-53
2023/12/29 09:35:59;;;;;;;4.13;1.50;;;10.50;66.60;;;;;;5012023;28;20487;-54
2023/12/29 09:38:25;;;;;;;3.37;1.47;;;10.60;70.10;;;;;;5012620;28;20502;-54
2023/12/29 09:40:53;;;;;;;4.50;1.43;;;10.50;68.10;;;;;;5013177;28;20463;-53
2023/12/29 09:43:20;;;;;;;2.87;1.40;;;10.30;61.90;;;;;;5012889;28;20946;-54
2023/12/29 09:45:48;;;;;;;1.90;1.37;;;10.20;48.40;;;;;;5012364;28;20440;-53
2023/12/29 09:48:19;;;;;;;1.50;1.10;;;9.90;72.90;;;;;;5012241;28;20502;-54
2023/12/29 09:50:47;;;;;;;2.90;2.00;;;9.70;20.70;;;;;;5012899;28;20474;-52
2023/12/29 09:53:14;;;;;;;2.73;1.37;;;9.60;99.70;;;;;;5012858;28;20501;-54
2023/12/29 09:55:46;;;;;;;1.47;1.10;;;9.60;99.90;;;;;;5015298;28;20514;-53
2023/12/29 09:58:13;;;;;;;2.57;1.43;;;9.60;99.90;;;;;;5011738;28;20448;-53
2023/12/29 10:00:40;;;;;;;3.80;1.53;;;9.50;99.90;;;;;;5005380;28;20467;-53
2023/12/29 10:03:09;;;;;;;1.93;1.13;;;9.50;99.90;;;;;;5011488;28;20444;-54
2023/12/29 10:05:37;;;;;;;2.40;1.53;;;9.40;99.90;;;;;;5012042;28;20793;-53
2023/12/29 10:08:06;;;;;;;4.50;1.47;;;9.40;99.90;;;;;;5012039;28;20440;-53
2023/12/29 10:10:34;;;;;;;4.40;1.80;;;9.40;99.90;;;;;;5012040;28;20949;-54
2023/12/29 10:13:01;;;;;;;1.80;1.50;;;9.30;99.90;;;;;;5011972;28;20455;-53
2023/12/29 10:15:38;;;;;;;4.43;1.60;;;9.20;99.90;;;;;;5011178;28;20483;-53
2023/12/29 10:18:13;;;;;;;6.00;1.60;;;9.10;99.90;;;;;;5011795;28;20451;-53
2023/12/29 10:20:46;;;;;;;1.70;1.60;;;8.90;99.90;;;;;;5007391;28;20505;-52
2023/12/29 10:23:18;;;;;;;3.13;2.10;;;8.90;99.90;;;;;;5003731;28;20960;-54
2023/12/29 10:25:44;;;;;;;3.43;1.53;;;8.80;99.90;;;;;;5012332;28;20453;-54
2023/12/29 10:28:11;;;;;;;5.43;1.97;;;8.70;99.90;;;;;;5011728;28;20456;-53
2023/12/29 10:30:37;;;;;;;5.23;1.90;;;8.60;99.90;;;;;;5012534;28;20478;-54
2023/12/29 10:33:05;;;;;;;2.40;1.30;;;8.60;95.70;;;;;;5012173;28;20937;-54
2023/12/29 10:35:34;;;;;;;1.80;1.70;;;8.50;90.40;;;;;;5012038;28;20985;-55
2023/12/29 10:38:11;;;;;;;4.33;1.80;;;8.60;87.70;;;;;;5011566;28;20444;-53
2023/12/29 10:40:38;;;;;;;7.30;2.03;;;8.50;83.20;;;;;;5012112;28;20501;-54
2023/12/29 10:43:06;;;;;;;6.63;2.57;;;8.60;79.90;;;;;;5012346;28;20447;-52
2023/12/29 10:45:33;;;;;;;4.07;1.63;;;8.50;76.40;;;;;;5011671;28;20448;-52
2023/12/29 10:48:01;;;;;;;6.67;2.10;;;8.60;73.10;;;;;;5011271;28;20868;-53
2023/12/29 10:50:28;;;;;;;10.40;2.20;;;8.50;72.80;;;;;;5011884;28;20447;-53
2023/12/29 10:53:13;;;;;;;4.37;2.20;;;8.60;71.70;;;;;;5011593;28;20819;-54
2023/12/29 10:55:38;;;;;;;5.53;1.70;;;8.70;72.80;;;;;;5011859;28;20490;-54
2023/12/29 10:58:06;;;;;;;3.00;2.00;;;8.70;74.40;;;;;;5011364;28;20444;-54
2023/12/29 11:00:33;;;;;;;6.07;2.40;;;8.80;83.90;;;;;;5011835;28;20919;-55
2023/12/29 11:03:00;;;;;;;2.90;2.30;;;8.90;86.50;;;;;;5038014;22;20556;-57
2023/12/29 11:05:27;;;;;;;1.90;1.70;;;8.90;91.50;;;;;;5031309;28;20484;-56
2023/12/29 11:07:55;;;;;;;4.20;1.70;;;8.90;95.80;;;;;;5031081;28;20947;-56
2023/12/29 11:10:23;;;;;;;5.63;1.80;;;8.90;99.90;;;;;;5031131;28;20454;-57
2023/12/29 11:12:50;;;;;;;7.90;1.87;;;9.00;99.90;;;;;;5024463;28;20854;-56
2023/12/29 11:15:17;;;;;;;2.83;1.57;;;9.20;99.90;;;;;;5031032;28;20991;-56
2023/12/29 11:17:49;;;;;;;2.47;1.43;;;9.40;99.90;;;;;;5031026;28;20443;-56
2023/12/29 11:20:16;;;;;;;2.57;1.43;;;9.70;99.90;;;;;;5036304;28;20493;-56
2023/12/29 11:22:44;;;;;;;7.60;1.53;;;9.80;99.90;;;;;;5031003;28;20467;-56
2023/12/29 11:25:12;;;;;;;2.13;1.33;;;10.00;99.90;;;;;;5020271;28;20443;-56
2023/12/29 11:27:41;;;;;;;4.73;2.20;;;10.20;98.50;;;;;;5030683;28;20990;-56
2023/12/29 11:30:10;;;;;;;3.37;1.80;;;10.20;85.60;;;;;;5031773;28;20509;-55
2023/12/29 11:32:43;;;;;;;3.60;2.23;;;10.30;22.40;;;;;;5034604;28;20498;-56
2023/12/29 11:35:17;;;;;;;5.70;1.93;;;10.30;27.10;;;;;;5035383;28;20450;-57
2023/12/29 11:38:08;;;;;;;10.30;1.83;;;10.40;33.10;;;;;;5043825;28;20839;-56
2023/12/29 11:40:41;;;;;;;2.97;1.60;;;10.40;35.40;;;;;;5033473;28;20513;-57
2023/12/29 11:43:16;;;;;;;3.63;1.57;;;10.40;44.10;;;;;;5034955;28;21043;-56
2023/12/29 11:45:42;;;;;;;4.80;1.77;;;10.50;50.70;;;;;;5035392;28;20450;-56
2023/12/29 11:48:11;;;;;;;3.47;1.23;;;10.50;41.20;;;;;;5034808;28;21015;-56
2023/12/29 11:50:40;;;;;;;5.70;1.37;;;10.50;46.60;;;;;;5034969;28;20451;-56
2023/12/29 11:53:07;;;;;;;7.03;2.13;;;10.60;51.80;;;;;;5034241;28;20924;-57
2023/12/29 11:55:36;;;;;;;4.50;1.27;;;10.60;49.50;;;;;;5035685;28;20483;-56
2023/12/29 11:58:04;;;;;;;4.07;2.13;;;10.60;53.80;;;;;;5037425;28;20455;-57
2023/12/29 12:00:46;;;;;;;3.53;1.90;;;10.60;51.70;;;;;;5034923;28;20461;-56
2023/12/29 12:03:21;;;;;;;7.03;1.57;;;10.60;56.00;;;;;;5034510;28;20483;-55
2023/12/29 12:05:48;;;;;;;5.70;2.00;;;10.70;63.30;;;;;;5035078;28;20496;-56
2023/12/29 12:08:29;;;;;;;3.83;2.00;;;10.70;55.20;;;;;;5035011;28;20454;-56
2023/12/29 12:10:55;;;;;;;3.43;1.73;;;10.70;56.50;;;;;;5035309;28;20456;-57
2023/12/29 12:13:44;;;;;;;3.80;1.90;;;10.70;57.60;;;;;;5034009;28;20463;-56
2023/12/29 12:16:47;;;;;;;6.10;1.33;;;10.70;63.20;;;;;;5033629;28;20489;-56
2023/12/29 12:19:15;;;;;;;7.07;1.63;;;10.70;66.60;;;;;;5034851;28;20450;-56
2023/12/29 12:21:42;;;;;;;5.00;2.07;;;10.70;59.40;;;;;;5034468;28;20498;-56
2023/12/29 12:24:09;;;;;;;4.73;2.07;;;10.70;57.20;;;;;;5035156;28;20497;-55
2023/12/29 12:26:35;;;;;;;3.70;1.40;;;10.60;54.90;;;;;;5034310;28;20451;-56
2023/12/29 12:29:02;;;;;;;4.50;1.43;;;10.50;52.20;;;;;;5034543;28;20866;-56
2023/12/29 12:31:30;;;;;;;3.80;1.47;;;10.60;49.20;;;;;;5034563;28;20525;-56
2023/12/29 12:33:57;;;;;;;3.40;1.80;;;10.50;45.10;;;;;;5034206;28;21002;-56
2023/12/29 12:36:26;;;;;;;3.30;1.23;;;10.40;33.20;;;;;;5031158;28;20536;-57
2023/12/29 12:38:53;;;;;;;6.73;1.73;;;10.40;21.70;;;;;;5034140;28;20549;-56
2023/12/29 12:41:20;;;;;;;3.03;1.07;;;10.30;35.10;;;;;;5033196;28;20443;-57
2023/12/29 12:43:55;;;;;;;3.07;1.07;;;10.20;73.00;;;;;;5033546;28;20493;-56
2023/12/29 12:46:25;;;;;;;3.90;1.30;;;10.10;99.90;;;;;;5034232;28;20473;-56
2023/12/29 12:48:55;;;;;;;4.83;1.47;;;9.90;99.90;;;;;;5034224;28;20746;-56
2023/12/29 12:51:22;;;;;;;3.43;1.20;;;9.70;99.90;;;;;;5034187;28;20537;-56
2023/12/29 12:53:50;;;;;;;3.53;1.20;;;9.50;99.90;;;;;;5033537;28;20455;-56
2023/12/29 12:56:19;;;;;;;4.40;1.23;;;9.40;99.90;;;;;;5033691;28;20483;-56
2023/12/29 12:58:45;;;;;;;2.70;1.00;;;9.20;99.90;;;;;;5033471;28;20443;-56